Time;durP1;ratioP1;P1;durP2;ratioP2;P2;SDS_P1;SDS_P2;PMS_P1;PMS_P2;Temp;Humidity;BMP_temperature;BMP_pressure;BME280_temperature;BME280_humidity;BME280_pressure;Samples;Min_cycle;Max_cycle;Signal;HPM_P1;HPM_P2
2022/08/12 10:03:33;;;;;;;;;;;;;;;30.86;35.13;99530.50;5042064;28;1497;-62
2022/08/12 10:18:11;;;;;;;;;;;;;;;31.56;34.42;99522.69;5055418;28;669;-62
2022/08/12 10:20:39;;;;;;;;;;;;;;;31.37;34.68;99514.28;5055063;28;917;-62
2022/08/12 10:23:09;;;;;;;;;;;;;;;31.29;34.79;99512.13;5037007;28;1201;-62
2022/08/12 10:31:21;;;;;;;;;;;;;;;32.06;33.12;99512.13;5055407;28;700;-63
2022/08/12 10:33:48;;;;;;;;;;;;;;;32.19;33.06;99511.25;5054912;28;894;-63
2022/08/12 10:36:15;;;;;;;;;;;;;;;32.29;32.55;99503.69;5055082;28;819;-63
2022/08/12 10:38:42;;;;;;;;;;;;;;;32.00;32.84;99497.22;5054965;28;815;-63
2022/08/12 10:56:15;;;;;;;;;;;;;;;33.05;31.45;99477.56;5054729;28;638;-62
2022/08/12 11:01:44;;;;;;;;;;;;;;;32.82;31.09;99486.06;5054712;28;1055;-62
2022/08/12 11:07:50;;;;;;;;;;;;;;;32.94;30.90;99477.88;5054174;28;674;-63
2022/08/12 11:13:21;;;;;;;;;;;;;;;34.27;29.11;99478.22;5050498;28;1221;-63
2022/08/12 11:15:48;;;;;;;;;;;;;;;34.21;28.73;99477.66;5054256;28;882;-64
2022/08/12 11:18:15;;;;;;;;;;;;;;;33.16;29.75;99479.34;5054089;28;934;-63
2022/08/12 11:20:42;;;;;;;;;;;;;;;32.20;30.83;99479.25;5053335;28;886;-64
2022/08/12 11:23:09;;;;;;;;;;;;;;;32.39;31.10;99478.19;5053893;28;1024;-65
2022/08/12 11:25:36;;;;;;;;;;;;;;;32.53;30.09;99473.94;5054090;28;828;-64
2022/08/12 11:28:04;;;;;;;;;;;;;;;33.56;29.85;99462.38;5054027;28;944;-64
2022/08/12 11:30:30;;;;;;;;;;;;;;;34.62;28.02;99467.03;5053726;28;1947;-63
2022/08/12 11:33:24;;;;;;;;;;;;;;;34.99;27.28;99465.31;5053905;28;835;-63
2022/08/12 11:35:51;;;;;;;;;;;;;;;35.85;26.43;99469.94;5053567;28;807;-63
2022/08/12 11:38:19;;;;;;;;;;;;;;;36.46;26.28;99465.66;5053537;28;843;-63
2022/08/12 11:40:46;;;;;;;;;;;;;;;36.74;25.90;99463.63;5053433;28;851;-64
2022/08/12 11:43:13;;;;;;;;;;;;;;;37.04;25.36;99461.69;5053284;28;955;-64
2022/08/12 11:45:40;;;;;;;;;;;;;;;37.40;25.22;99449.44;5053420;28;878;-63
2022/08/12 11:48:07;;;;;;;;;;;;;;;37.12;24.64;99454.47;5053341;28;847;-63
2022/08/12 11:50:36;;;;;;;;;;;;;;;35.20;26.58;99449.91;5053311;28;1890;-64
2022/08/12 11:53:03;;;;;;;;;;;;;;;34.93;27.26;99444.69;5053303;28;952;-64
2022/08/12 11:55:31;;;;;;;;;;;;;;;35.83;26.57;99438.13;5035314;28;1235;-64
2022/08/12 11:57:58;;;;;;;;;;;;;;;35.48;26.88;99440.88;5053368;28;890;-64
2022/08/12 12:00:36;;;;;;;;;;;;;;;35.06;27.62;99443.66;5053065;28;954;-64
2022/08/12 12:03:02;;;;;;;;;;;;;;;35.61;27.21;99448.44;5044137;28;1283;-64
2022/08/12 12:05:28;;;;;;;;;;;;;;;34.87;27.86;99447.78;5033304;28;887;-64
2022/08/12 12:07:54;;;;;;;;;;;;;;;34.07;28.86;99443.44;5015347;28;938;-64
2022/08/12 12:10:20;;;;;;;;;;;;;;;33.45;29.95;99436.97;5032926;28;1973;-65
2022/08/12 12:12:54;;;;;;;;;;;;;;;32.66;30.71;99436.59;5032922;28;839;-64
2022/08/12 12:15:20;;;;;;;;;;;;;;;31.83;31.61;99438.38;5015229;28;1153;-64
2022/08/12 12:17:50;;;;;;;;;;;;;;;31.40;31.95;99438.97;5032896;28;820;-65
2022/08/12 12:20:17;;;;;;;;;;;;;;;31.04;32.44;99445.28;5032889;28;1110;-64
2022/08/12 12:22:43;;;;;;;;;;;;;;;30.74;33.03;99437.88;5032788;28;867;-64
2022/08/12 12:25:11;;;;;;;;;;;;;;;30.37;33.53;99436.88;5014979;28;1393;-63
2022/08/12 12:27:48;;;;;;;;;;;;;;;30.18;34.21;99430.50;5032897;28;871;-63
2022/08/12 12:30:15;;;;;;;;;;;;;;;30.89;33.62;99432.38;5032581;28;1953;-63
2022/08/12 12:32:43;;;;;;;;;;;;;;;31.39;32.09;99426.78;5014509;28;1192;-63
2022/08/12 12:35:10;;;;;;;;;;;;;;;31.48;32.30;99420.59;5014709;28;1184;-63
2022/08/12 12:38:09;;;;;;;;;;;;;;;33.07;30.51;99414.78;5032651;28;819;-63
2022/08/12 12:40:36;;;;;;;;;;;;;;;35.36;27.79;99411.88;4978373;28;1416;-62
2022/08/12 12:43:04;;;;;;;;;;;;;;;36.45;25.99;99412.34;5032459;28;860;-63
2022/08/12 12:45:31;;;;;;;;;;;;;;;36.02;25.80;99423.19;5014657;28;1454;-64
2022/08/12 12:48:03;;;;;;;;;;;;;;;36.31;25.98;99414.06;5032297;28;812;-63
2022/08/12 12:50:31;;;;;;;;;;;;;;;36.48;25.78;99419.78;5032288;28;1882;-64
2022/08/12 12:52:58;;;;;;;;;;;;;;;36.86;24.95;99414.91;5032181;28;828;-63
2022/08/12 12:55:25;;;;;;;;;;;;;;;37.21;24.56;99409.78;5032156;28;895;-64
2022/08/12 12:57:52;;;;;;;;;;;;;;;37.37;23.83;99411.06;5032023;28;797;-65
2022/08/12 13:00:19;;;;;;;;;;;;;;;37.53;24.00;99408.66;5032164;28;947;-65
2022/08/12 13:03:22;;;;;;;;;;;;;;;37.97;23.31;99406.97;5016999;28;1062;-64
2022/08/12 13:05:49;;;;;;;;;;;;;;;38.58;22.89;99400.00;5032007;28;943;-63
2022/08/12 13:08:23;;;;;;;;;;;;;;;37.35;24.22;99408.03;5031957;28;840;-64
2022/08/12 13:10:51;;;;;;;;;;;;;;;35.89;25.04;99409.91;5031759;28;1914;-65
2022/08/12 13:13:18;;;;;;;;;;;;;;;35.63;26.16;99404.75;5031940;28;871;-65
2022/08/12 13:15:49;;;;;;;;;;;;;;;36.09;28.09;99413.72;5032023;28;852;-66
2022/08/12 13:18:19;;;;;;;;;;;;;;;36.78;29.54;99412.13;5031829;28;864;-66
2022/08/12 13:20:46;;;;;;;;;;;;;;;37.19;30.48;99418.25;5031964;28;872;-66
2022/08/12 13:23:18;;;;;;;;;;;;;;;36.84;31.34;99418.38;5014202;28;1186;-66
2022/08/12 13:25:45;;;;;;;;;;;;;;;36.83;31.38;99416.88;5013974;28;1240;-65
2022/08/12 13:28:23;;;;;;;;;;;;;;;36.87;31.49;99416.41;5031578;28;878;-66
2022/08/12 13:30:51;;;;;;;;;;;;;;;36.89;31.07;99413.69;5031549;28;1985;-65
2022/08/12 13:33:24;;;;;;;;;;;;;;;36.98;31.29;99404.38;5031625;28;820;-67
2022/08/12 13:36:00;;;;;;;;;;;;;;;36.62;31.87;99407.94;5031627;28;843;-65
2022/08/12 13:38:37;;;;;;;;;;;;;;;36.53;31.34;99404.38;5031516;28;955;-66
2022/08/12 13:41:05;;;;;;;;;;;;;;;36.11;32.10;99401.63;5031867;28;967;-65
2022/08/12 13:43:44;;;;;;;;;;;;;;;36.50;31.91;99396.19;5031130;28;883;-67
2022/08/12 13:49:18;;;;;;;;;;;;;;;37.07;30.76;99397.88;4997318;28;1929;-66
2022/08/12 13:51:51;;;;;;;;;;;;;;;35.85;31.95;99392.31;5031408;28;851;-66
2022/08/12 13:54:18;;;;;;;;;;;;;;;35.91;32.21;99392.81;5031443;28;863;-66
2022/08/12 13:56:45;;;;;;;;;;;;;;;36.61;31.42;99400.63;5031233;28;878;-66
2022/08/12 13:59:13;;;;;;;;;;;;;;;36.65;31.49;99395.25;5031359;28;917;-65
2022/08/12 14:01:46;;;;;;;;;;;;;;;36.53;32.11;99387.13;5013728;28;1327;-67
2022/08/12 14:04:13;;;;;;;;;;;;;;;36.02;32.10;99388.69;5030979;28;1268;-65
2022/08/12 14:06:42;;;;;;;;;;;;;;;35.83;32.62;99389.25;5031609;28;871;-66
2022/08/12 14:10:34;;;;;;;;;;;;;;;35.20;34.01;99387.50;5031137;28;1909;-66
2022/08/12 14:12:17;;;;;;;;;;;;;;;34.31;35.52;99384.72;5031103;28;861;-66
2022/08/12 14:14:49;;;;;;;;;;;;;;;33.35;36.80;99388.09;5031132;28;835;-65
2022/08/12 14:17:17;;;;;;;;;;;;;;;32.62;38.09;99399.00;5031154;28;1119;-66
2022/08/12 14:20:12;;;;;;;;;;;;;;;32.94;38.63;99387.06;5031178;28;874;-66
2022/08/12 14:22:30;;;;;;;;;;;;;;;33.56;37.23;99387.91;5030724;28;1186;-66
2022/08/12 14:25:10;;;;;;;;;;;;;;;33.79;36.53;99378.53;5031046;28;1126;-65
2022/08/12 14:27:38;;;;;;;;;;;;;;;33.74;37.03;99382.38;5031010;28;950;-65
2022/08/12 14:30:06;;;;;;;;;;;;;;;33.73;36.84;99386.56;5030983;28;1951;-66
2022/08/12 14:32:36;;;;;;;;;;;;;;;32.84;38.51;99388.19;5031082;28;843;-65
2022/08/12 14:35:05;;;;;;;;;;;;;;;32.00;39.64;99397.19;5031011;28;937;-65
2022/08/12 14:37:32;;;;;;;;;;;;;;;31.46;41.03;99393.94;5030955;28;886;-66
2022/08/12 14:39:59;;;;;;;;;;;;;;;31.04;41.81;99400.38;5030984;28;799;-65
2022/08/12 14:42:30;;;;;;;;;;;;;;;30.82;42.23;99386.63;5031049;28;835;-65
2022/08/12 14:45:00;;;;;;;;;;;;;;;31.33;41.72;99386.19;5030838;28;965;-65
2022/08/12 14:47:28;;;;;;;;;;;;;;;31.80;41.41;99390.19;5030901;28;858;-65
2022/08/12 14:49:59;;;;;;;;;;;;;;;31.43;41.74;99386.47;5030756;28;1902;-65
2022/08/12 14:52:25;;;;;;;;;;;;;;;30.95;42.87;99383.00;5031246;28;780;-66
2022/08/12 14:54:52;;;;;;;;;;;;;;;30.55;43.53;99397.34;5030822;28;903;-65
2022/08/12 14:57:53;;;;;;;;;;;;;;;30.19;44.38;99390.03;5016560;28;1343;-65
2022/08/12 15:03:26;;;;;;;;;;;;;;;30.01;45.15;99390.94;5034118;28;1173;-65
2022/08/12 15:06:05;;;;;;;;;;;;;;;30.43;44.75;99388.28;5016479;28;1322;-65
2022/08/12 15:08:33;;;;;;;;;;;;;;;30.72;43.84;99383.47;5034322;28;1071;-66
2022/08/12 15:11:03;;;;;;;;;;;;;;;30.79;44.18;99382.03;5016570;28;1975;-65
2022/08/12 15:13:31;;;;;;;;;;;;;;;31.02;43.75;99393.69;5034136;28;828;-66
2022/08/12 15:16:00;;;;;;;;;;;;;;;31.00;43.68;99390.63;5034061;28;844;-66
2022/08/12 15:21:39;;;;;;;;;;;;;;;31.51;42.27;99388.06;5034754;28;630;-65
2022/08/12 15:24:09;;;;;;;;;;;;;;;31.18;42.64;99377.50;5033806;28;867;-65
2022/08/12 15:27:00;;;;;;;;;;;;;;;30.78;43.87;99377.66;5033869;28;839;-65
2022/08/12 15:29:32;;;;;;;;;;;;;;;30.40;44.37;99381.59;5033820;28;1907;-66
2022/08/12 15:35:10;;;;;;;;;;;;;;;30.00;45.67;99373.09;5033723;28;1065;-66
2022/08/12 15:37:47;;;;;;;;;;;;;;;30.08;45.74;99378.88;5033887;28;816;-65
2022/08/12 15:40:13;;;;;;;;;;;;;;;29.77;45.92;99369.16;5033679;28;859;-65
2022/08/12 15:42:42;;;;;;;;;;;;;;;29.14;47.59;99375.13;5015831;28;1315;-65
2022/08/12 15:45:11;;;;;;;;;;;;;;;28.60;48.92;99376.22;5033509;28;1348;-65
2022/08/12 15:48:07;;;;;;;;;;;;;;;28.24;50.17;99370.72;5033491;28;852;-65
2022/08/12 15:54:04;;;;;;;;;;;;;;;28.20;50.39;99370.25;5033441;28;685;-64
2022/08/12 15:56:31;;;;;;;;;;;;;;;28.20;50.74;99381.63;5033451;28;824;-64
2022/08/12 15:59:02;;;;;;;;;;;;;;;28.17;51.00;99380.63;5015662;28;1208;-64
2022/08/12 16:01:29;;;;;;;;;;;;;;;28.09;51.65;99376.84;5033488;28;959;-65
2022/08/12 16:03:56;;;;;;;;;;;;;;;27.92;52.30;99379.88;5033302;28;1404;-64
2022/08/12 16:06:39;;;;;;;;;;;;;;;27.87;53.12;99384.31;5032931;28;982;-64
2022/08/12 16:09:05;;;;;;;;;;;;;;;27.69;53.89;99382.16;5032984;28;1963;-64
2022/08/12 16:11:39;;;;;;;;;;;;;;;27.59;54.41;99384.59;5033783;28;791;-64
2022/08/12 16:14:08;;;;;;;;;;;;;;;27.40;55.56;99387.34;5032952;28;875;-65
2022/08/12 16:16:36;;;;;;;;;;;;;;;27.25;56.15;99390.59;5032936;28;1134;-64
2022/08/12 16:19:03;;;;;;;;;;;;;;;27.14;56.65;99387.03;5015081;28;1145;-64
2022/08/12 16:21:30;;;;;;;;;;;;;;;26.94;56.53;99385.38;5032825;28;887;-65
2022/08/12 16:23:56;;;;;;;;;;;;;;;26.86;56.86;99379.50;5032750;28;816;-66
2022/08/12 16:26:23;;;;;;;;;;;;;;;26.79;57.45;99374.41;5032786;28;871;-64
2022/08/12 16:28:51;;;;;;;;;;;;;;;26.55;58.30;99380.72;5032682;28;816;-64
2022/08/12 16:31:17;;;;;;;;;;;;;;;26.31;58.81;99392.66;5014839;28;1871;-64
2022/08/12 16:33:45;;;;;;;;;;;;;;;26.10;59.66;99387.38;5032649;28;914;-64
2022/08/12 16:36:12;;;;;;;;;;;;;;;25.96;60.28;99383.53;5032543;28;855;-64
2022/08/12 16:38:39;;;;;;;;;;;;;;;25.81;60.79;99388.69;5032542;28;863;-64
2022/08/12 16:41:06;;;;;;;;;;;;;;;25.66;61.18;99389.75;5032431;28;898;-65
2022/08/12 16:43:33;;;;;;;;;;;;;;;25.52;61.86;99395.69;5032472;28;894;-64
2022/08/12 16:46:01;;;;;;;;;;;;;;;25.36;62.28;99400.09;5014653;28;1247;-64
2022/08/12 16:48:29;;;;;;;;;;;;;;;25.19;62.77;99395.16;5032344;28;835;-64
2022/08/12 16:50:58;;;;;;;;;;;;;;;25.03;63.43;99402.38;5014354;28;1997;-64
2022/08/12 16:53:25;;;;;;;;;;;;;;;24.89;64.11;99396.97;5032182;28;868;-64
2022/08/12 16:55:53;;;;;;;;;;;;;;;24.73;64.96;99395.63;5032224;28;796;-65
2022/08/12 16:58:21;;;;;;;;;;;;;;;24.58;65.62;99393.81;5014264;28;1410;-67
2022/08/12 17:00:48;;;;;;;;;;;;;;;24.43;66.28;99396.03;5032455;28;987;-64
2022/08/12 17:03:15;;;;;;;;;;;;;;;24.31;66.81;99398.06;5015293;28;1418;-64
2022/08/12 17:05:44;;;;;;;;;;;;;;;24.20;67.12;99398.78;5032077;28;1027;-64
2022/08/12 17:08:11;;;;;;;;;;;;;;;24.12;67.22;99400.56;5031935;28;855;-65
2022/08/12 17:10:37;;;;;;;;;;;;;;;23.99;67.96;99408.72;5030594;28;1927;-65
2022/08/12 17:13:07;;;;;;;;;;;;;;;23.86;68.51;99411.97;5031915;28;820;-64
2022/08/12 17:15:37;;;;;;;;;;;;;;;23.76;68.81;99417.03;5030576;28;1180;-65
2022/08/12 17:18:08;;;;;;;;;;;;;;;23.66;69.36;99415.66;5032014;28;831;-65
2022/08/12 17:20:36;;;;;;;;;;;;;;;23.58;69.52;99421.00;5031983;28;836;-65
2022/08/12 17:23:04;;;;;;;;;;;;;;;23.46;69.94;99418.59;5031674;28;831;-64
2022/08/12 17:25:32;;;;;;;;;;;;;;;23.38;70.09;99427.50;5030511;28;1200;-64
2022/08/12 17:28:00;;;;;;;;;;;;;;;23.29;70.38;99419.22;5031768;28;870;-64
2022/08/12 17:30:27;;;;;;;;;;;;;;;23.20;71.02;99427.88;5031554;28;1955;-65
2022/08/12 17:32:55;;;;;;;;;;;;;;;23.10;71.36;99421.63;5031716;28;852;-64
2022/08/12 17:35:35;;;;;;;;;;;;;;;23.07;71.51;99433.91;5030302;28;1204;-64
2022/08/12 17:38:03;;;;;;;;;;;;;;;22.96;72.09;99430.94;5031672;28;877;-64
2022/08/12 17:40:30;;;;;;;;;;;;;;;22.86;72.48;99433.16;5031557;28;878;-64
2022/08/12 17:42:58;;;;;;;;;;;;;;;22.78;72.63;99437.66;5031832;28;842;-64
2022/08/12 17:45:28;;;;;;;;;;;;;;;22.68;73.17;99442.69;5031511;28;831;-65
2022/08/12 17:48:02;;;;;;;;;;;;;;;22.59;73.68;99443.59;5031539;28;890;-64
2022/08/12 17:50:33;;;;;;;;;;;;;;;22.49;74.03;99445.03;5030066;28;1951;-64
2022/08/12 17:53:00;;;;;;;;;;;;;;;22.37;74.40;99443.34;5031319;28;815;-65
2022/08/12 17:55:30;;;;;;;;;;;;;;;22.32;74.73;99452.47;5031463;28;859;-65
2022/08/12 17:57:58;;;;;;;;;;;;;;;22.28;74.83;99447.06;5031640;28;997;-65
2022/08/12 18:00:27;;;;;;;;;;;;;;;22.24;75.42;99448.56;5031707;28;1026;-64
2022/08/12 18:02:56;;;;;;;;;;;;;;;22.22;75.55;99446.19;5031115;28;1151;-65
2022/08/12 18:05:24;;;;;;;;;;;;;;;22.11;75.96;99449.63;5031343;28;843;-65
2022/08/12 18:07:53;;;;;;;;;;;;;;;22.03;76.52;99452.09;5031322;28;864;-64
2022/08/12 18:13:07;;;;;;;;;;;;;;;21.92;76.91;99456.78;5031622;28;627;-65
2022/08/12 18:15:34;;;;;;;;;;;;;;;21.84;77.62;99455.63;5013580;28;1350;-65
2022/08/12 18:18:04;;;;;;;;;;;;;;;21.78;77.92;99452.72;5031268;28;832;-65
2022/08/12 18:20:31;;;;;;;;;;;;;;;21.70;77.92;99452.38;5031189;28;901;-65
2022/08/12 18:22:59;;;;;;;;;;;;;;;21.61;78.40;99458.09;5031040;28;887;-65
2022/08/12 18:28:12;;;;;;;;;;;;;;;21.46;79.37;99462.97;5031175;28;693;-64
2022/08/12 18:30:44;;;;;;;;;;;;;;;21.37;79.83;99461.78;5032251;28;1898;-67
2022/08/12 18:33:11;;;;;;;;;;;;;;;21.28;80.43;99463.94;5017162;28;1292;-67
2022/08/12 18:35:39;;;;;;;;;;;;;;;21.24;80.57;99466.94;5034956;28;816;-67
2022/08/12 18:38:07;;;;;;;;;;;;;;;21.24;80.56;99463.34;5034822;28;824;-67
2022/08/12 18:43:23;;;;;;;;;;;;;;;21.18;81.59;99472.44;5034764;28;626;-67
2022/08/12 18:45:59;;;;;;;;;;;;;;;21.15;81.82;99478.28;5034331;28;1144;-67
2022/08/12 18:48:43;;;;;;;;;;;;;;;21.07;81.97;99474.28;5034685;28;903;-66
2022/08/12 18:51:11;;;;;;;;;;;;;;;20.93;82.67;99476.59;5034568;28;1941;-67
2022/08/12 18:53:41;;;;;;;;;;;;;;;20.87;83.27;99472.09;5016818;28;1402;-67
2022/08/12 18:56:08;;;;;;;;;;;;;;;20.86;83.53;99467.75;5016673;28;1217;-67
2022/08/12 18:58:48;;;;;;;;;;;;;;;20.85;83.66;99461.38;5034452;28;907;-67
2022/08/12 19:01:16;;;;;;;;;;;;;;;20.78;83.87;99468.16;5034626;28;952;-67
2022/08/12 19:03:56;;;;;;;;;;;;;;;20.74;84.30;99466.75;5042287;28;1209;-67
2022/08/12 19:06:23;;;;;;;;;;;;;;;20.70;84.85;99471.81;5036317;28;1211;-66
2022/08/12 19:08:53;;;;;;;;;;;;;;;20.70;85.11;99471.81;5054147;28;824;-66
2022/08/12 19:16:51;;;;;;;;;;;;;;;20.50;85.76;99464.72;5054002;28;1349;-67
2022/08/12 19:19:18;;;;;;;;;;;;;;;20.40;86.14;99461.22;5053960;28;800;-66
2022/08/12 19:21:47;;;;;;;;;;;;;;;20.33;86.28;99452.38;5053782;28;878;-66
2022/08/12 19:27:03;;;;;;;;;;;;;;;20.24;86.73;99466.50;5054209;28;630;-67
2022/08/12 19:29:34;;;;;;;;;;;;;;;20.18;86.92;99458.72;5035768;28;1886;-67
2022/08/12 19:32:02;;;;;;;;;;;;;;;20.15;86.95;99456.88;5053722;28;823;-67
2022/08/12 19:34:33;;;;;;;;;;;;;;;20.14;86.87;99454.53;5053604;28;828;-67
2022/08/12 19:37:03;;;;;;;;;;;;;;;20.16;86.60;99452.03;5053965;28;840;-67
2022/08/12 19:39:30;;;;;;;;;;;;;;;20.18;86.32;99457.94;5035747;28;1282;-67
2022/08/12 19:42:23;;;;;;;;;;;;;;;20.17;85.92;99456.41;5052125;28;857;-67
2022/08/12 19:44:52;;;;;;;;;;;;;;;20.08;85.64;99448.03;5053531;28;835;-67
2022/08/12 19:47:21;;;;;;;;;;;;;;;20.00;85.67;99450.41;5053410;28;871;-66
2022/08/12 19:49:52;;;;;;;;;;;;;;;19.94;85.55;99455.13;5053253;28;1941;-66
2022/08/12 19:52:20;;;;;;;;;;;;;;;19.91;85.38;99448.44;5053216;28;863;-67
2022/08/12 19:54:51;;;;;;;;;;;;;;;19.90;85.05;99451.72;5053265;28;815;-67
2022/08/12 19:57:21;;;;;;;;;;;;;;;19.91;84.83;99444.88;5053689;28;816;-67
2022/08/12 19:59:57;;;;;;;;;;;;;;;19.87;84.57;99445.03;5035305;28;1163;-67
2022/08/12 20:02:33;;;;;;;;;;;;;;;19.84;84.27;99443.16;5035222;28;1259;-67
2022/08/12 20:05:03;;;;;;;;;;;;;;;19.83;83.89;99444.44;5034459;28;1289;-67
2022/08/12 20:07:41;;;;;;;;;;;;;;;19.85;83.64;99441.16;5033120;28;828;-64
2022/08/12 20:10:12;;;;;;;;;;;;;;;19.86;83.02;99439.88;5033035;28;1902;-68
2022/08/12 20:12:41;;;;;;;;;;;;;;;19.90;82.73;99434.88;5033043;28;840;-67
2022/08/12 20:15:10;;;;;;;;;;;;;;;19.95;81.82;99435.03;5033586;28;847;-67
2022/08/12 20:17:37;;;;;;;;;;;;;;;20.05;80.89;99434.97;5015375;28;1217;-66
2022/08/12 20:20:05;;;;;;;;;;;;;;;20.11;79.75;99436.63;5032944;28;823;-68
2022/08/12 20:22:33;;;;;;;;;;;;;;;20.14;79.09;99423.66;5032889;28;838;-67
2022/08/12 20:25:05;;;;;;;;;;;;;;;20.19;78.19;99423.81;5032883;28;835;-67
2022/08/12 20:27:32;;;;;;;;;;;;;;;20.25;77.39;99423.13;5032769;28;902;-66
2022/08/12 20:30:12;;;;;;;;;;;;;;;20.22;77.13;99424.88;5032537;28;1878;-66
2022/08/12 20:32:59;;;;;;;;;;;;;;;20.21;76.76;99430.97;5033222;28;871;-67
2022/08/12 20:35:30;;;;;;;;;;;;;;;20.19;76.49;99414.63;5032539;28;876;-67
2022/08/12 20:38:12;;;;;;;;;;;;;;;20.17;76.35;99417.13;5032581;28;851;-67
2022/08/12 20:40:40;;;;;;;;;;;;;;;20.17;76.49;99419.94;5014751;28;1394;-67
2022/08/12 20:43:14;;;;;;;;;;;;;;;20.16;76.59;99412.75;5032413;28;871;-66
2022/08/12 20:45:49;;;;;;;;;;;;;;;20.15;76.91;99416.81;5032548;28;879;-67
2022/08/12 20:48:22;;;;;;;;;;;;;;;19.98;77.31;99411.63;5032288;28;861;-67
2022/08/12 20:50:49;;;;;;;;;;;;;;;19.78;78.40;99423.44;5032402;28;1943;-67
2022/08/12 20:53:15;;;;;;;;;;;;;;;19.67;78.97;99423.16;5031935;28;913;-66
2022/08/12 20:55:47;;;;;;;;;;;;;;;19.58;79.53;99423.94;5014553;28;1564;-67
2022/08/12 21:01:16;;;;;;;;;;;;;;;19.59;80.21;99419.91;5032158;28;1147;-66
2022/08/12 21:09:13;;;;;;;;;;;;;;;19.64;81.36;99421.28;5031996;28;1903;-67
2022/08/12 21:11:40;;;;;;;;;;;;;;;19.59;81.58;99417.09;5031972;28;811;-66
2022/08/12 21:14:08;;;;;;;;;;;;;;;19.52;81.74;99422.25;5031921;28;815;-66
2022/08/12 21:16:35;;;;;;;;;;;;;;;19.40;81.79;99412.81;5030617;28;1405;-67
2022/08/12 21:19:02;;;;;;;;;;;;;;;19.28;82.00;99419.41;5030503;28;1415;-66
2022/08/12 21:21:30;;;;;;;;;;;;;;;19.29;82.01;99415.34;5031796;28;876;-66
2022/08/12 21:23:58;;;;;;;;;;;;;;;19.32;81.80;99420.00;5031842;28;874;-66
2022/08/12 21:26:25;;;;;;;;;;;;;;;19.30;81.97;99416.91;5031763;28;839;-67
2022/08/12 21:28:59;;;;;;;;;;;;;;;19.31;82.31;99410.84;5031737;28;871;-67
2022/08/12 21:31:26;;;;;;;;;;;;;;;19.40;82.45;99409.25;5032277;28;1890;-66
2022/08/12 21:33:57;;;;;;;;;;;;;;;19.41;82.37;99408.75;5030390;28;1711;-67
2022/08/12 21:36:23;;;;;;;;;;;;;;;19.35;82.76;99403.03;5031830;28;938;-67
2022/08/12 21:38:56;;;;;;;;;;;;;;;19.37;82.95;99405.34;5031545;28;831;-67
2022/08/12 21:41:23;;;;;;;;;;;;;;;19.43;82.79;99408.28;5031841;28;839;-67
2022/08/12 21:43:51;;;;;;;;;;;;;;;19.42;82.90;99401.16;5031487;28;800;-66
2022/08/12 21:46:17;;;;;;;;;;;;;;;19.33;82.83;99405.53;5030261;28;1271;-66
2022/08/12 21:48:44;;;;;;;;;;;;;;;19.23;83.29;99395.59;5031356;28;834;-66
2022/08/12 21:51:11;;;;;;;;;;;;;;;19.20;83.46;99401.34;5031423;28;1953;-67
2022/08/12 21:53:38;;;;;;;;;;;;;;;19.23;83.49;99403.22;5030179;28;1250;-66
2022/08/12 21:56:07;;;;;;;;;;;;;;;19.18;83.52;99393.41;5031415;28;796;-66
2022/08/12 21:58:34;;;;;;;;;;;;;;;19.11;83.63;99397.34;5031388;28;1131;-66
2022/08/12 22:01:01;;;;;;;;;;;;;;;18.97;83.99;99395.22;5031542;28;952;-66
2022/08/12 22:06:20;;;;;;;;;;;;;;;18.81;84.81;99392.75;5053836;28;626;-66
2022/08/12 22:08:48;;;;;;;;;;;;;;;18.76;84.99;99394.13;5055264;28;836;-67
2022/08/12 22:11:15;;;;;;;;;;;;;;;18.73;85.47;99386.66;5055089;28;1913;-67
2022/08/12 22:13:42;;;;;;;;;;;;;;;18.67;85.80;99388.53;5055193;28;840;-66
2022/08/12 22:16:09;;;;;;;;;;;;;;;18.62;86.33;99386.34;5037164;28;1512;-66
2022/08/12 22:18:41;;;;;;;;;;;;;;;18.61;86.66;99384.81;5054959;28;900;-67
2022/08/12 22:21:08;;;;;;;;;;;;;;;18.57;87.05;99382.94;5055336;28;785;-67
2022/08/12 22:23:40;;;;;;;;;;;;;;;18.54;87.35;99383.09;5055347;28;820;-67
2022/08/12 22:26:07;;;;;;;;;;;;;;;18.47;87.82;99380.63;5037054;28;1319;-66
2022/08/12 22:31:19;;;;;;;;;;;;;;;18.43;88.35;99385.59;5055002;28;1986;-67
2022/08/12 22:33:47;;;;;;;;;;;;;;;18.42;88.66;99379.22;5054878;28;869;-67
2022/08/12 22:36:18;;;;;;;;;;;;;;;18.44;88.69;99378.78;5054846;28;820;-67
2022/08/12 22:38:45;;;;;;;;;;;;;;;18.41;89.27;99374.09;5054706;28;836;-67
2022/08/12 22:49:32;;;;;;;;;;;;;;;18.56;90.29;99363.81;5054791;28;1957;-67
2022/08/12 22:52:00;;;;;;;;;;;;;;;18.65;90.19;99363.81;5054482;28;840;-66
2022/08/12 22:54:26;;;;;;;;;;;;;;;18.61;90.37;99354.81;5054358;28;823;-67
2022/08/12 22:56:56;;;;;;;;;;;;;;;18.59;90.64;99353.72;5054280;28;922;-67
2022/08/12 22:59:24;;;;;;;;;;;;;;;18.56;90.71;99358.22;5054333;28;832;-67
2022/08/12 23:01:56;;;;;;;;;;;;;;;18.55;91.36;99349.03;5036522;28;1543;-67
2022/08/12 23:04:23;;;;;;;;;;;;;;;18.69;91.86;99355.25;5032921;28;1389;-66
2022/08/12 23:06:53;;;;;;;;;;;;;;;18.84;92.53;99361.00;5033032;28;1337;-66
2022/08/12 23:09:28;;;;;;;;;;;;;;;18.95;92.46;99353.66;5032889;28;1973;-67
2022/08/12 23:11:55;;;;;;;;;;;;;;;19.07;92.37;99346.31;5034519;28;871;-67
2022/08/12 23:14:22;;;;;;;;;;;;;;;19.11;91.98;99341.31;5034369;28;894;-67
2022/08/12 23:16:50;;;;;;;;;;;;;;;19.10;92.04;99350.97;5032647;28;1433;-67
2022/08/12 23:19:18;;;;;;;;;;;;;;;19.05;91.72;99346.00;5032732;28;1453;-67
2022/08/12 23:21:52;;;;;;;;;;;;;;;18.96;91.81;99338.41;5032692;28;1307;-66
2022/08/12 23:24:20;;;;;;;;;;;;;;;18.95;92.04;99342.47;5032576;28;1300;-67
2022/08/12 23:29:32;;;;;;;;;;;;;;;18.92;91.79;99325.81;5034143;28;1886;-66
2022/08/12 23:31:59;;;;;;;;;;;;;;;18.84;91.74;99331.00;5032539;28;1343;-66
2022/08/12 23:34:26;;;;;;;;;;;;;;;18.75;92.08;99328.16;5033790;28;917;-67
2022/08/12 23:36:54;;;;;;;;;;;;;;;18.70;92.41;99321.19;5033759;28;823;-67
2022/08/12 23:39:21;;;;;;;;;;;;;;;18.90;93.74;99317.88;5033765;28;795;-67
2022/08/12 23:41:53;;;;;;;;;;;;;;;19.40;93.89;99319.59;5032299;28;1429;-66
2022/08/12 23:44:22;;;;;;;;;;;;;;;19.85;92.06;99314.97;5033661;28;863;-67
2022/08/12 23:46:57;;;;;;;;;;;;;;;20.13;90.34;99316.28;5033451;28;836;-66
2022/08/12 23:49:26;;;;;;;;;;;;;;;20.31;89.06;99311.78;5033461;28;1878;-67
2022/08/12 23:51:56;;;;;;;;;;;;;;;20.33;88.18;99307.25;5033547;28;890;-66
2022/08/12 23:54:22;;;;;;;;;;;;;;;20.36;87.81;99305.50;5033424;28;890;-67
2022/08/12 23:56:49;;;;;;;;;;;;;;;20.36;87.52;99299.91;5033434;28;908;-66
2022/08/12 23:59:16;;;;;;;;;;;;;;;20.35;87.32;99298.34;5033648;28;815;-66
